sensor_id;sensor_type;location;lat;lon;timestamp;P1;durP1;ratioP1;P2;durP2;ratioP2
10661;SDS011;5379;51.034;7.006;2022-12-04T00:02:28;13.87;;;10.47;;
10661;SDS011;5379;51.034;7.006;2022-12-04T00:04:56;17.43;;;11.57;;
10661;SDS011;5379;51.034;7.006;2022-12-04T00:07:23;14.10;;;10.87;;
10661;SDS011;5379;51.034;7.006;2022-12-04T00:09:50;10.60;;;9.50;;
10661;SDS011;5379;51.034;7.006;2022-12-04T00:12:17;12.90;;;10.70;;
10661;SDS011;5379;51.034;7.006;2022-12-04T00:14:44;12.23;;;11.00;;
10661;SDS011;5379;51.034;7.006;2022-12-04T00:17:13;14.20;;;11.37;;
10661;SDS011;5379;51.034;7.006;2022-12-04T00:19:40;15.17;;;10.83;;
10661;SDS011;5379;51.034;7.006;2022-12-04T00:22:07;13.43;;;10.40;;
10661;SDS011;5379;51.034;7.006;2022-12-04T00:24:34;14.63;;;10.87;;
10661;SDS011;5379;51.034;7.006;2022-12-04T00:27:01;14.27;;;10.83;;
10661;SDS011;5379;51.034;7.006;2022-12-04T00:29:29;14.13;;;11.37;;
10661;SDS011;5379;51.034;7.006;2022-12-04T00:31:56;14.03;;;11.20;;
10661;SDS011;5379;51.034;7.006;2022-12-04T00:34:25;16.50;;;10.73;;
10661;SDS011;5379;51.034;7.006;2022-12-04T00:36:52;15.67;;;11.40;;
10661;SDS011;5379;51.034;7.006;2022-12-04T00:39:19;13.03;;;10.37;;
10661;SDS011;5379;51.034;7.006;2022-12-04T00:41:46;13.70;;;10.43;;
10661;SDS011;5379;51.034;7.006;2022-12-04T00:44:13;13.43;;;10.60;;
10661;SDS011;5379;51.034;7.006;2022-12-04T00:46:41;17.83;;;11.07;;
10661;SDS011;5379;51.034;7.006;2022-12-04T00:49:08;13.17;;;10.37;;
10661;SDS011;5379;51.034;7.006;2022-12-04T00:51:37;16.03;;;10.93;;
10661;SDS011;5379;51.034;7.006;2022-12-04T00:54:04;16.27;;;10.97;;
10661;SDS011;5379;51.034;7.006;2022-12-04T00:56:31;13.40;;;10.93;;
10661;SDS011;5379;51.034;7.006;2022-12-04T00:58:58;18.03;;;10.40;;
10661;SDS011;5379;51.034;7.006;2022-12-04T01:01:26;16.60;;;12.03;;
10661;SDS011;5379;51.034;7.006;2022-12-04T01:03:55;15.27;;;11.60;;
10661;SDS011;5379;51.034;7.006;2022-12-04T01:06:23;14.67;;;11.33;;
10661;SDS011;5379;51.034;7.006;2022-12-04T01:08:53;14.03;;;10.23;;
10661;SDS011;5379;51.034;7.006;2022-12-04T01:11:22;15.00;;;10.70;;
10661;SDS011;5379;51.034;7.006;2022-12-04T01:13:50;13.73;;;10.70;;
10661;SDS011;5379;51.034;7.006;2022-12-04T01:16:18;14.20;;;10.77;;
10661;SDS011;5379;51.034;7.006;2022-12-04T01:18:46;15.00;;;11.53;;
10661;SDS011;5379;51.034;7.006;2022-12-04T01:21:14;16.77;;;12.53;;
10661;SDS011;5379;51.034;7.006;2022-12-04T01:23:41;16.07;;;11.73;;
10661;SDS011;5379;51.034;7.006;2022-12-04T01:26:09;14.57;;;10.47;;
10661;SDS011;5379;51.034;7.006;2022-12-04T01:28:37;15.40;;;10.50;;
10661;SDS011;5379;51.034;7.006;2022-12-04T05:31:36;11.57;;;7.70;;
10661;SDS011;5379;51.034;7.006;2022-12-04T05:34:03;7.70;;;6.87;;
10661;SDS011;5379;51.034;7.006;2022-12-04T05:36:30;8.17;;;7.03;;
10661;SDS011;5379;51.034;7.006;2022-12-04T05:38:57;7.80;;;7.00;;
10661;SDS011;5379;51.034;7.006;2022-12-04T05:41:24;7.40;;;6.30;;
10661;SDS011;5379;51.034;7.006;2022-12-04T05:43:51;7.70;;;6.50;;
10661;SDS011;5379;51.034;7.006;2022-12-04T05:46:18;7.83;;;6.17;;
10661;SDS011;5379;51.034;7.006;2022-12-04T05:48:46;7.20;;;5.80;;
10661;SDS011;5379;51.034;7.006;2022-12-04T05:51:13;7.00;;;6.10;;
10661;SDS011;5379;51.034;7.006;2022-12-04T05:53:40;6.37;;;5.57;;
10661;SDS011;5379;51.034;7.006;2022-12-04T05:56:07;5.97;;;5.37;;
10661;SDS011;5379;51.034;7.006;2022-12-04T05:58:36;7.27;;;6.47;;
10661;SDS011;5379;51.034;7.006;2022-12-04T06:01:07;8.03;;;7.00;;
10661;SDS011;5379;51.034;7.006;2022-12-04T06:03:35;8.90;;;7.17;;
10661;SDS011;5379;51.034;7.006;2022-12-04T06:06:04;10.07;;;6.77;;
10661;SDS011;5379;51.034;7.006;2022-12-04T06:08:37;7.00;;;6.30;;
10661;SDS011;5379;51.034;7.006;2022-12-04T06:11:08;8.03;;;5.53;;
10661;SDS011;5379;51.034;7.006;2022-12-04T06:13:35;5.93;;;5.20;;
10661;SDS011;5379;51.034;7.006;2022-12-04T06:16:03;6.93;;;5.73;;
10661;SDS011;5379;51.034;7.006;2022-12-04T06:18:30;7.43;;;6.00;;
10661;SDS011;5379;51.034;7.006;2022-12-04T06:20:57;7.00;;;6.23;;
10661;SDS011;5379;51.034;7.006;2022-12-04T06:23:25;6.73;;;6.07;;
10661;SDS011;5379;51.034;7.006;2022-12-04T06:25:52;7.27;;;5.50;;
10661;SDS011;5379;51.034;7.006;2022-12-04T06:28:19;9.83;;;6.53;;
10661;SDS011;5379;51.034;7.006;2022-12-04T06:30:46;7.87;;;6.77;;
10661;SDS011;5379;51.034;7.006;2022-12-04T06:33:13;6.00;;;5.40;;
10661;SDS011;5379;51.034;7.006;2022-12-04T06:35:40;6.53;;;5.37;;
10661;SDS011;5379;51.034;7.006;2022-12-04T06:38:07;7.87;;;5.47;;
10661;SDS011;5379;51.034;7.006;2022-12-04T06:40:39;6.80;;;5.43;;
10661;SDS011;5379;51.034;7.006;2022-12-04T06:43:06;6.13;;;5.03;;
10661;SDS011;5379;51.034;7.006;2022-12-04T06:45:33;7.97;;;6.43;;
10661;SDS011;5379;51.034;7.006;2022-12-04T06:48:00;7.77;;;6.97;;
10661;SDS011;5379;51.034;7.006;2022-12-04T06:50:27;7.33;;;6.40;;
10661;SDS011;5379;51.034;7.006;2022-12-04T06:52:54;8.53;;;6.40;;
10661;SDS011;5379;51.034;7.006;2022-12-04T06:55:21;6.87;;;6.20;;
10661;SDS011;5379;51.034;7.006;2022-12-04T06:57:49;8.27;;;7.17;;
10661;SDS011;5379;51.034;7.006;2022-12-04T07:00:16;8.00;;;6.70;;
10661;SDS011;5379;51.034;7.006;2022-12-04T07:02:44;9.33;;;6.67;;
10661;SDS011;5379;51.034;7.006;2022-12-04T07:05:11;7.20;;;6.50;;
10661;SDS011;5379;51.034;7.006;2022-12-04T07:07:39;6.57;;;5.97;;
10661;SDS011;5379;51.034;7.006;2022-12-04T07:10:06;6.90;;;6.20;;
10661;SDS011;5379;51.034;7.006;2022-12-04T07:12:34;7.23;;;6.33;;
10661;SDS011;5379;51.034;7.006;2022-12-04T07:15:02;7.17;;;5.70;;
10661;SDS011;5379;51.034;7.006;2022-12-04T07:17:30;6.73;;;6.13;;
10661;SDS011;5379;51.034;7.006;2022-12-04T07:19:57;7.30;;;6.60;;
10661;SDS011;5379;51.034;7.006;2022-12-04T07:22:24;7.80;;;5.93;;
10661;SDS011;5379;51.034;7.006;2022-12-04T07:24:52;7.20;;;6.50;;
10661;SDS011;5379;51.034;7.006;2022-12-04T07:27:19;7.80;;;6.57;;
10661;SDS011;5379;51.034;7.006;2022-12-04T07:29:46;7.40;;;6.50;;
10661;SDS011;5379;51.034;7.006;2022-12-04T07:32:14;8.97;;;6.57;;
10661;SDS011;5379;51.034;7.006;2022-12-04T07:34:41;6.77;;;6.17;;
10661;SDS011;5379;51.034;7.006;2022-12-04T07:37:08;10.63;;;7.00;;
10661;SDS011;5379;51.034;7.006;2022-12-04T07:39:35;6.93;;;6.23;;
10661;SDS011;5379;51.034;7.006;2022-12-04T07:42:02;7.17;;;5.90;;
10661;SDS011;5379;51.034;7.006;2022-12-04T07:44:29;8.27;;;6.57;;
10661;SDS011;5379;51.034;7.006;2022-12-04T07:46:57;8.90;;;7.07;;
10661;SDS011;5379;51.034;7.006;2022-12-04T07:49:25;6.80;;;6.17;;
10661;SDS011;5379;51.034;7.006;2022-12-04T07:51:52;7.33;;;6.63;;
10661;SDS011;5379;51.034;7.006;2022-12-04T07:54:19;8.30;;;6.30;;
10661;SDS011;5379;51.034;7.006;2022-12-04T07:56:46;7.57;;;6.77;;
10661;SDS011;5379;51.034;7.006;2022-12-04T07:59:13;10.10;;;6.93;;
10661;SDS011;5379;51.034;7.006;2022-12-04T08:01:40;10.33;;;6.97;;
10661;SDS011;5379;51.034;7.006;2022-12-04T08:04:08;8.53;;;7.03;;
10661;SDS011;5379;51.034;7.006;2022-12-04T08:06:37;9.63;;;6.73;;
10661;SDS011;5379;51.034;7.006;2022-12-04T08:09:05;8.90;;;7.33;;
10661;SDS011;5379;51.034;7.006;2022-12-04T08:11:32;12.73;;;6.87;;
10661;SDS011;5379;51.034;7.006;2022-12-04T08:14:00;7.67;;;6.87;;
10661;SDS011;5379;51.034;7.006;2022-12-04T08:16:30;9.30;;;7.37;;
10661;SDS011;5379;51.034;7.006;2022-12-04T08:18:58;8.00;;;7.13;;
10661;SDS011;5379;51.034;7.006;2022-12-04T08:21:26;8.03;;;7.23;;
10661;SDS011;5379;51.034;7.006;2022-12-04T08:23:55;8.87;;;7.33;;
10661;SDS011;5379;51.034;7.006;2022-12-04T08:26:24;11.70;;;6.83;;
10661;SDS011;5379;51.034;7.006;2022-12-04T08:28:52;9.17;;;8.13;;
10661;SDS011;5379;51.034;7.006;2022-12-04T08:31:21;9.40;;;7.97;;
10661;SDS011;5379;51.034;7.006;2022-12-04T08:33:50;8.60;;;7.57;;
10661;SDS011;5379;51.034;7.006;2022-12-04T08:36:19;10.00;;;7.53;;
10661;SDS011;5379;51.034;7.006;2022-12-04T08:38:47;8.83;;;7.37;;
10661;SDS011;5379;51.034;7.006;2022-12-04T08:41:16;9.17;;;8.20;;
10661;SDS011;5379;51.034;7.006;2022-12-04T08:43:47;9.10;;;7.63;;
10661;SDS011;5379;51.034;7.006;2022-12-04T08:46:15;8.60;;;6.63;;
10661;SDS011;5379;51.034;7.006;2022-12-04T08:48:43;8.00;;;7.30;;
10661;SDS011;5379;51.034;7.006;2022-12-04T08:51:11;8.73;;;7.23;;
10661;SDS011;5379;51.034;7.006;2022-12-04T08:53:40;9.27;;;7.93;;
10661;SDS011;5379;51.034;7.006;2022-12-04T08:56:08;9.53;;;6.57;;
10661;SDS011;5379;51.034;7.006;2022-12-04T08:58:36;8.03;;;6.90;;
10661;SDS011;5379;51.034;7.006;2022-12-04T09:01:03;9.27;;;7.30;;
10661;SDS011;5379;51.034;7.006;2022-12-04T09:03:31;8.13;;;6.87;;
10661;SDS011;5379;51.034;7.006;2022-12-04T09:05:59;9.03;;;7.90;;
10661;SDS011;5379;51.034;7.006;2022-12-04T09:08:27;9.57;;;7.80;;
10661;SDS011;5379;51.034;7.006;2022-12-04T09:11:00;9.83;;;7.67;;
10661;SDS011;5379;51.034;7.006;2022-12-04T09:13:28;9.07;;;7.57;;
10661;SDS011;5379;51.034;7.006;2022-12-04T09:15:57;7.30;;;6.60;;
10661;SDS011;5379;51.034;7.006;2022-12-04T09:18:28;8.90;;;6.53;;
10661;SDS011;5379;51.034;7.006;2022-12-04T09:20:55;8.10;;;7.30;;
10661;SDS011;5379;51.034;7.006;2022-12-04T09:23:23;8.23;;;7.23;;
10661;SDS011;5379;51.034;7.006;2022-12-04T09:25:50;7.70;;;6.90;;
10661;SDS011;5379;51.034;7.006;2022-12-04T09:28:18;10.27;;;7.30;;
10661;SDS011;5379;51.034;7.006;2022-12-04T09:30:45;9.47;;;8.20;;
10661;SDS011;5379;51.034;7.006;2022-12-04T09:33:22;12.07;;;7.63;;
10661;SDS011;5379;51.034;7.006;2022-12-04T09:35:49;8.87;;;7.13;;
10661;SDS011;5379;51.034;7.006;2022-12-04T09:38:16;10.37;;;8.13;;
10661;SDS011;5379;51.034;7.006;2022-12-04T09:40:45;10.40;;;8.03;;
10661;SDS011;5379;51.034;7.006;2022-12-04T09:43:22;11.70;;;7.20;;
10661;SDS011;5379;51.034;7.006;2022-12-04T09:45:57;11.43;;;7.37;;
10661;SDS011;5379;51.034;7.006;2022-12-04T09:48:30;8.73;;;7.83;;
10661;SDS011;5379;51.034;7.006;2022-12-04T09:51:00;9.93;;;7.77;;
10661;SDS011;5379;51.034;7.006;2022-12-04T09:53:28;11.00;;;7.07;;
10661;SDS011;5379;51.034;7.006;2022-12-04T09:56:03;7.97;;;7.23;;
10661;SDS011;5379;51.034;7.006;2022-12-04T09:58:34;11.17;;;7.73;;
10661;SDS011;5379;51.034;7.006;2022-12-04T10:01:06;8.73;;;7.80;;
10661;SDS011;5379;51.034;7.006;2022-12-04T10:03:45;8.77;;;7.57;;
10661;SDS011;5379;51.034;7.006;2022-12-04T10:06:13;10.20;;;8.60;;
10661;SDS011;5379;51.034;7.006;2022-12-04T10:08:44;11.27;;;7.67;;
10661;SDS011;5379;51.034;7.006;2022-12-04T10:11:16;10.40;;;7.30;;
10661;SDS011;5379;51.034;7.006;2022-12-04T10:16:47;8.00;;;7.30;;
10661;SDS011;5379;51.034;7.006;2022-12-04T10:19:27;9.63;;;7.90;;
10661;SDS011;5379;51.034;7.006;2022-12-04T10:22:02;8.23;;;7.40;;
10661;SDS011;5379;51.034;7.006;2022-12-04T10:24:39;7.93;;;7.13;;
10661;SDS011;5379;51.034;7.006;2022-12-04T10:27:11;8.97;;;7.70;;
10661;SDS011;5379;51.034;7.006;2022-12-04T10:29:45;10.47;;;7.80;;
10661;SDS011;5379;51.034;7.006;2022-12-04T10:32:17;7.50;;;6.70;;
10661;SDS011;5379;51.034;7.006;2022-12-04T10:34:49;8.33;;;7.50;;
10661;SDS011;5379;51.034;7.006;2022-12-04T10:37:19;8.27;;;7.40;;
10661;SDS011;5379;51.034;7.006;2022-12-04T10:39:49;8.43;;;7.57;;
10661;SDS011;5379;51.034;7.006;2022-12-04T10:42:20;9.37;;;6.97;;
10661;SDS011;5379;51.034;7.006;2022-12-04T10:44:54;8.57;;;6.90;;
10661;SDS011;5379;51.034;7.006;2022-12-04T10:47:21;7.43;;;6.73;;
10661;SDS011;5379;51.034;7.006;2022-12-04T10:49:53;9.80;;;7.33;;
10661;SDS011;5379;51.034;7.006;2022-12-04T10:52:24;9.73;;;6.80;;
10661;SDS011;5379;51.034;7.006;2022-12-04T10:54:52;8.43;;;7.40;;
10661;SDS011;5379;51.034;7.006;2022-12-04T10:57:32;7.57;;;6.87;;
10661;SDS011;5379;51.034;7.006;2022-12-04T11:00:00;8.50;;;7.57;;
10661;SDS011;5379;51.034;7.006;2022-12-04T11:02:31;7.70;;;6.97;;
10661;SDS011;5379;51.034;7.006;2022-12-04T11:05:01;11.23;;;7.37;;
10661;SDS011;5379;51.034;7.006;2022-12-04T11:07:32;6.90;;;6.33;;
10661;SDS011;5379;51.034;7.006;2022-12-04T11:10:02;7.37;;;6.67;;
10661;SDS011;5379;51.034;7.006;2022-12-04T11:12:31;7.57;;;6.67;;
10661;SDS011;5379;51.034;7.006;2022-12-04T11:14:59;9.27;;;7.40;;
10661;SDS011;5379;51.034;7.006;2022-12-04T11:17:28;9.90;;;6.67;;
10661;SDS011;5379;51.034;7.006;2022-12-04T11:19:59;7.40;;;6.70;;
10661;SDS011;5379;51.034;7.006;2022-12-04T11:22:29;8.70;;;6.17;;
10661;SDS011;5379;51.034;7.006;2022-12-04T11:24:57;8.93;;;6.63;;
10661;SDS011;5379;51.034;7.006;2022-12-04T11:27:26;7.10;;;6.40;;
10661;SDS011;5379;51.034;7.006;2022-12-04T11:29:57;7.43;;;6.27;;
10661;SDS011;5379;51.034;7.006;2022-12-04T11:32:28;7.70;;;7.00;;
10661;SDS011;5379;51.034;7.006;2022-12-04T11:34:58;9.13;;;7.80;;
10661;SDS011;5379;51.034;7.006;2022-12-04T11:37:31;6.40;;;5.80;;
10661;SDS011;5379;51.034;7.006;2022-12-04T11:39:59;9.13;;;6.43;;
10661;SDS011;5379;51.034;7.006;2022-12-04T11:42:29;7.50;;;6.80;;
10661;SDS011;5379;51.034;7.006;2022-12-04T11:44:57;7.97;;;7.17;;
10661;SDS011;5379;51.034;7.006;2022-12-04T11:47:26;8.00;;;6.63;;
10661;SDS011;5379;51.034;7.006;2022-12-04T11:49:56;7.37;;;6.67;;
10661;SDS011;5379;51.034;7.006;2022-12-04T11:52:31;9.47;;;7.20;;
10661;SDS011;5379;51.034;7.006;2022-12-04T11:55:12;17.00;;;8.90;;
10661;SDS011;5379;51.034;7.006;2022-12-04T11:57:46;8.87;;;7.10;;
10661;SDS011;5379;51.034;7.006;2022-12-04T12:00:21;8.13;;;6.83;;
10661;SDS011;5379;51.034;7.006;2022-12-04T12:08:37;9.07;;;8.10;;
10661;SDS011;5379;51.034;7.006;2022-12-04T12:11:16;7.80;;;7.00;;
10661;SDS011;5379;51.034;7.006;2022-12-04T12:13:52;8.57;;;7.17;;
10661;SDS011;5379;51.034;7.006;2022-12-04T12:16:26;7.90;;;7.10;;
10661;SDS011;5379;51.034;7.006;2022-12-04T12:19:14;8.30;;;7.40;;
10661;SDS011;5379;51.034;7.006;2022-12-04T12:22:02;7.10;;;6.40;;
10661;SDS011;5379;51.034;7.006;2022-12-04T12:24:42;6.93;;;6.23;;
10661;SDS011;5379;51.034;7.006;2022-12-04T12:27:23;18.73;;;12.20;;
10661;SDS011;5379;51.034;7.006;2022-12-04T12:30:00;7.90;;;7.13;;
10661;SDS011;5379;51.034;7.006;2022-12-04T12:32:37;8.17;;;6.83;;
10661;SDS011;5379;51.034;7.006;2022-12-04T12:35:23;8.67;;;6.67;;
10661;SDS011;5379;51.034;7.006;2022-12-04T12:37:55;7.70;;;6.90;;
10661;SDS011;5379;51.034;7.006;2022-12-04T12:40:29;9.17;;;7.30;;
10661;SDS011;5379;51.034;7.006;2022-12-04T12:43:01;11.57;;;7.83;;
10661;SDS011;5379;51.034;7.006;2022-12-04T12:45:33;8.53;;;7.00;;
10661;SDS011;5379;51.034;7.006;2022-12-04T12:48:07;9.20;;;7.23;;
10661;SDS011;5379;51.034;7.006;2022-12-04T12:50:42;7.67;;;6.73;;
10661;SDS011;5379;51.034;7.006;2022-12-04T12:53:14;7.53;;;6.67;;
10661;SDS011;5379;51.034;7.006;2022-12-04T12:55:48;7.73;;;6.70;;
10661;SDS011;5379;51.034;7.006;2022-12-04T12:58:18;9.57;;;7.47;;
10661;SDS011;5379;51.034;7.006;2022-12-04T13:00:51;9.53;;;7.57;;
10661;SDS011;5379;51.034;7.006;2022-12-04T13:03:25;9.63;;;7.00;;
10661;SDS011;5379;51.034;7.006;2022-12-04T13:05:59;9.23;;;7.57;;
10661;SDS011;5379;51.034;7.006;2022-12-04T13:08:31;10.20;;;7.77;;
10661;SDS011;5379;51.034;7.006;2022-12-04T13:11:04;7.47;;;6.67;;
10661;SDS011;5379;51.034;7.006;2022-12-04T13:13:38;7.23;;;6.47;;
10661;SDS011;5379;51.034;7.006;2022-12-04T13:16:11;8.40;;;6.17;;
10661;SDS011;5379;51.034;7.006;2022-12-04T13:18:43;7.77;;;6.57;;
10661;SDS011;5379;51.034;7.006;2022-12-04T13:21:19;7.83;;;7.03;;
10661;SDS011;5379;51.034;7.006;2022-12-04T13:23:58;9.80;;;6.70;;
10661;SDS011;5379;51.034;7.006;2022-12-04T13:26:49;9.40;;;7.57;;
10661;SDS011;5379;51.034;7.006;2022-12-04T13:29:24;7.50;;;6.83;;
10661;SDS011;5379;51.034;7.006;2022-12-04T13:32:06;9.23;;;7.80;;
10661;SDS011;5379;51.034;7.006;2022-12-04T13:34:50;10.27;;;7.27;;
10661;SDS011;5379;51.034;7.006;2022-12-04T13:37:29;11.03;;;8.97;;
10661;SDS011;5379;51.034;7.006;2022-12-04T13:40:18;11.03;;;9.00;;
10661;SDS011;5379;51.034;7.006;2022-12-04T13:43:19;14.87;;;9.80;;
10661;SDS011;5379;51.034;7.006;2022-12-04T13:45:53;11.07;;;8.43;;
10661;SDS011;5379;51.034;7.006;2022-12-04T13:48:25;10.30;;;8.23;;
10661;SDS011;5379;51.034;7.006;2022-12-04T13:51:02;10.73;;;8.00;;
10661;SDS011;5379;51.034;7.006;2022-12-04T13:53:32;13.03;;;8.53;;
10661;SDS011;5379;51.034;7.006;2022-12-04T13:56:03;9.53;;;7.80;;
10661;SDS011;5379;51.034;7.006;2022-12-04T13:58:33;10.93;;;8.70;;
10661;SDS011;5379;51.034;7.006;2022-12-04T14:01:02;14.03;;;8.93;;
10661;SDS011;5379;51.034;7.006;2022-12-04T14:03:37;12.67;;;8.90;;
10661;SDS011;5379;51.034;7.006;2022-12-04T14:06:18;15.07;;;9.00;;
10661;SDS011;5379;51.034;7.006;2022-12-04T14:08:47;8.70;;;7.80;;
10661;SDS011;5379;51.034;7.006;2022-12-04T14:11:20;10.00;;;8.40;;
10661;SDS011;5379;51.034;7.006;2022-12-04T14:13:49;8.73;;;7.80;;
10661;SDS011;5379;51.034;7.006;2022-12-04T14:16:20;17.03;;;10.07;;
10661;SDS011;5379;51.034;7.006;2022-12-04T14:18:50;8.60;;;7.47;;
10661;SDS011;5379;51.034;7.006;2022-12-04T14:21:18;13.77;;;8.60;;
10661;SDS011;5379;51.034;7.006;2022-12-04T14:23:45;11.50;;;8.37;;
10661;SDS011;5379;51.034;7.006;2022-12-04T14:26:20;9.47;;;8.47;;
10661;SDS011;5379;51.034;7.006;2022-12-04T14:28:51;7.57;;;6.97;;
10661;SDS011;5379;51.034;7.006;2022-12-04T14:31:28;10.40;;;8.13;;
10661;SDS011;5379;51.034;7.006;2022-12-04T14:34:00;10.47;;;8.03;;
10661;SDS011;5379;51.034;7.006;2022-12-04T14:36:29;10.40;;;8.50;;
10661;SDS011;5379;51.034;7.006;2022-12-04T14:39:02;10.60;;;8.40;;
10661;SDS011;5379;51.034;7.006;2022-12-04T14:41:33;11.70;;;8.93;;
10661;SDS011;5379;51.034;7.006;2022-12-04T14:44:01;11.43;;;8.20;;
10661;SDS011;5379;51.034;7.006;2022-12-04T14:46:30;12.13;;;8.67;;
10661;SDS011;5379;51.034;7.006;2022-12-04T14:49:16;10.73;;;8.63;;
10661;SDS011;5379;51.034;7.006;2022-12-04T14:51:58;10.67;;;9.00;;
10661;SDS011;5379;51.034;7.006;2022-12-04T14:54:32;11.67;;;8.27;;
10661;SDS011;5379;51.034;7.006;2022-12-04T14:57:18;13.53;;;9.20;;
10661;SDS011;5379;51.034;7.006;2022-12-04T14:59:56;10.23;;;8.43;;
10661;SDS011;5379;51.034;7.006;2022-12-04T15:02:27;13.40;;;9.43;;
10661;SDS011;5379;51.034;7.006;2022-12-04T15:05:00;15.03;;;9.90;;
10661;SDS011;5379;51.034;7.006;2022-12-04T15:07:28;12.07;;;9.17;;
10661;SDS011;5379;51.034;7.006;2022-12-04T15:09:57;10.53;;;8.57;;
10661;SDS011;5379;51.034;7.006;2022-12-04T15:12:43;13.00;;;9.07;;
10661;SDS011;5379;51.034;7.006;2022-12-04T15:15:16;10.37;;;8.47;;
10661;SDS011;5379;51.034;7.006;2022-12-04T15:17:55;10.27;;;9.10;;
10661;SDS011;5379;51.034;7.006;2022-12-04T15:20:27;10.77;;;9.67;;
10661;SDS011;5379;51.034;7.006;2022-12-04T15:22:57;12.63;;;9.37;;
10661;SDS011;5379;51.034;7.006;2022-12-04T15:25:25;10.87;;;8.67;;
10661;SDS011;5379;51.034;7.006;2022-12-04T15:27:59;10.63;;;8.90;;
10661;SDS011;5379;51.034;7.006;2022-12-04T15:30:32;10.20;;;8.63;;
10661;SDS011;5379;51.034;7.006;2022-12-04T15:33:04;10.77;;;8.87;;
10661;SDS011;5379;51.034;7.006;2022-12-04T15:35:31;12.80;;;9.57;;
10661;SDS011;5379;51.034;7.006;2022-12-04T15:37:59;10.73;;;8.97;;
10661;SDS011;5379;51.034;7.006;2022-12-04T15:40:27;10.53;;;9.43;;
10661;SDS011;5379;51.034;7.006;2022-12-04T15:43:04;14.60;;;10.63;;
10661;SDS011;5379;51.034;7.006;2022-12-04T15:45:42;11.03;;;9.93;;
10661;SDS011;5379;51.034;7.006;2022-12-04T15:48:09;13.73;;;11.13;;
10661;SDS011;5379;51.034;7.006;2022-12-04T15:50:36;16.00;;;10.07;;
10661;SDS011;5379;51.034;7.006;2022-12-04T15:53:06;12.60;;;11.17;;
10661;SDS011;5379;51.034;7.006;2022-12-04T15:55:45;16.27;;;11.87;;
10661;SDS011;5379;51.034;7.006;2022-12-04T15:58:17;19.17;;;13.00;;
10661;SDS011;5379;51.034;7.006;2022-12-04T16:00:51;14.33;;;12.50;;
10661;SDS011;5379;51.034;7.006;2022-12-04T16:03:21;13.37;;;11.13;;
10661;SDS011;5379;51.034;7.006;2022-12-04T16:06:00;12.57;;;10.30;;
10661;SDS011;5379;51.034;7.006;2022-12-04T16:08:32;12.83;;;9.77;;
10661;SDS011;5379;51.034;7.006;2022-12-04T16:11:01;12.53;;;9.73;;
10661;SDS011;5379;51.034;7.006;2022-12-04T16:13:30;14.53;;;10.50;;
10661;SDS011;5379;51.034;7.006;2022-12-04T16:16:00;13.40;;;10.20;;
10661;SDS011;5379;51.034;7.006;2022-12-04T16:18:32;15.37;;;10.97;;
10661;SDS011;5379;51.034;7.006;2022-12-04T16:20:59;14.93;;;11.80;;
10661;SDS011;5379;51.034;7.006;2022-12-04T16:23:27;14.03;;;10.30;;
10661;SDS011;5379;51.034;7.006;2022-12-04T16:25:54;13.87;;;11.00;;
10661;SDS011;5379;51.034;7.006;2022-12-04T16:28:21;32.70;;;20.17;;
10661;SDS011;5379;51.034;7.006;2022-12-04T16:30:49;13.77;;;11.00;;
10661;SDS011;5379;51.034;7.006;2022-12-04T16:33:18;15.63;;;11.80;;
10661;SDS011;5379;51.034;7.006;2022-12-04T16:35:45;18.90;;;13.00;;
10661;SDS011;5379;51.034;7.006;2022-12-04T16:38:13;16.27;;;11.47;;
10661;SDS011;5379;51.034;7.006;2022-12-04T16:40:41;17.87;;;11.40;;
10661;SDS011;5379;51.034;7.006;2022-12-04T16:43:10;12.90;;;10.87;;
10661;SDS011;5379;51.034;7.006;2022-12-04T16:45:38;15.60;;;11.27;;
10661;SDS011;5379;51.034;7.006;2022-12-04T16:48:10;14.20;;;11.63;;
10661;SDS011;5379;51.034;7.006;2022-12-04T16:50:39;22.57;;;11.43;;
10661;SDS011;5379;51.034;7.006;2022-12-04T16:53:06;16.83;;;11.73;;
10661;SDS011;5379;51.034;7.006;2022-12-04T16:55:37;15.83;;;12.43;;
10661;SDS011;5379;51.034;7.006;2022-12-04T16:58:04;17.40;;;12.87;;
10661;SDS011;5379;51.034;7.006;2022-12-04T17:00:32;15.10;;;11.63;;
10661;SDS011;5379;51.034;7.006;2022-12-04T17:03:00;16.77;;;11.97;;
10661;SDS011;5379;51.034;7.006;2022-12-04T17:05:29;20.23;;;11.47;;
10661;SDS011;5379;51.034;7.006;2022-12-04T17:08:01;13.83;;;12.37;;
10661;SDS011;5379;51.034;7.006;2022-12-04T17:10:28;19.10;;;12.30;;
10661;SDS011;5379;51.034;7.006;2022-12-04T17:12:55;16.83;;;13.33;;
10661;SDS011;5379;51.034;7.006;2022-12-04T17:15:22;15.13;;;13.57;;
10661;SDS011;5379;51.034;7.006;2022-12-04T17:17:52;18.27;;;13.07;;
10661;SDS011;5379;51.034;7.006;2022-12-04T17:20:19;17.57;;;14.27;;
10661;SDS011;5379;51.034;7.006;2022-12-04T17:22:49;21.40;;;13.17;;
10661;SDS011;5379;51.034;7.006;2022-12-04T17:25:18;17.43;;;13.63;;
10661;SDS011;5379;51.034;7.006;2022-12-04T17:27:45;16.73;;;12.33;;
10661;SDS011;5379;51.034;7.006;2022-12-04T17:30:12;18.30;;;14.07;;
10661;SDS011;5379;51.034;7.006;2022-12-04T17:32:40;21.03;;;14.37;;
10661;SDS011;5379;51.034;7.006;2022-12-04T17:35:08;16.93;;;13.50;;
10661;SDS011;5379;51.034;7.006;2022-12-04T17:37:37;17.80;;;12.37;;
10661;SDS011;5379;51.034;7.006;2022-12-04T17:40:05;20.07;;;13.60;;
10661;SDS011;5379;51.034;7.006;2022-12-04T17:42:35;18.10;;;12.93;;
10661;SDS011;5379;51.034;7.006;2022-12-04T17:45:03;17.80;;;13.97;;
10661;SDS011;5379;51.034;7.006;2022-12-04T17:47:30;18.10;;;14.00;;
10661;SDS011;5379;51.034;7.006;2022-12-04T17:49:59;17.67;;;13.33;;
10661;SDS011;5379;51.034;7.006;2022-12-04T17:52:27;19.07;;;14.27;;
10661;SDS011;5379;51.034;7.006;2022-12-04T17:54:54;19.47;;;12.83;;
10661;SDS011;5379;51.034;7.006;2022-12-04T17:57:21;18.50;;;13.73;;
10661;SDS011;5379;51.034;7.006;2022-12-04T17:59:49;21.00;;;14.50;;
10661;SDS011;5379;51.034;7.006;2022-12-04T18:02:16;17.63;;;14.40;;
10661;SDS011;5379;51.034;7.006;2022-12-04T18:04:43;24.90;;;14.17;;
10661;SDS011;5379;51.034;7.006;2022-12-04T18:07:10;16.53;;;13.27;;
10661;SDS011;5379;51.034;7.006;2022-12-04T18:09:37;18.23;;;13.30;;
10661;SDS011;5379;51.034;7.006;2022-12-04T18:12:05;17.23;;;13.57;;
10661;SDS011;5379;51.034;7.006;2022-12-04T18:14:32;14.67;;;12.63;;
10661;SDS011;5379;51.034;7.006;2022-12-04T18:17:01;16.60;;;13.83;;
10661;SDS011;5379;51.034;7.006;2022-12-04T18:19:28;16.10;;;12.60;;
10661;SDS011;5379;51.034;7.006;2022-12-04T18:21:56;16.50;;;12.60;;
10661;SDS011;5379;51.034;7.006;2022-12-04T18:24:24;16.60;;;12.57;;
10661;SDS011;5379;51.034;7.006;2022-12-04T18:26:52;16.53;;;12.50;;
10661;SDS011;5379;51.034;7.006;2022-12-04T18:29:20;18.27;;;12.50;;
10661;SDS011;5379;51.034;7.006;2022-12-04T18:31:49;20.53;;;12.93;;
10661;SDS011;5379;51.034;7.006;2022-12-04T18:34:18;13.00;;;11.70;;
10661;SDS011;5379;51.034;7.006;2022-12-04T18:36:46;17.17;;;13.80;;
10661;SDS011;5379;51.034;7.006;2022-12-04T18:39:14;15.73;;;12.13;;
10661;SDS011;5379;51.034;7.006;2022-12-04T18:41:43;16.00;;;12.57;;
10661;SDS011;5379;51.034;7.006;2022-12-04T18:44:11;15.50;;;12.00;;
10661;SDS011;5379;51.034;7.006;2022-12-04T18:46:39;27.97;;;16.67;;
10661;SDS011;5379;51.034;7.006;2022-12-04T18:49:08;20.83;;;12.87;;
10661;SDS011;5379;51.034;7.006;2022-12-04T18:51:37;18.83;;;12.20;;
10661;SDS011;5379;51.034;7.006;2022-12-04T18:54:07;22.40;;;13.50;;
10661;SDS011;5379;51.034;7.006;2022-12-04T18:56:35;17.47;;;13.03;;
10661;SDS011;5379;51.034;7.006;2022-12-04T18:59:04;17.77;;;12.53;;
10661;SDS011;5379;51.034;7.006;2022-12-04T19:01:32;16.70;;;12.07;;
10661;SDS011;5379;51.034;7.006;2022-12-04T19:04:00;16.77;;;13.10;;
10661;SDS011;5379;51.034;7.006;2022-12-04T19:06:31;17.80;;;13.60;;
10661;SDS011;5379;51.034;7.006;2022-12-04T19:09:02;18.03;;;13.47;;
10661;SDS011;5379;51.034;7.006;2022-12-04T19:11:31;22.03;;;15.60;;
10661;SDS011;5379;51.034;7.006;2022-12-04T19:13:59;22.93;;;15.17;;
10661;SDS011;5379;51.034;7.006;2022-12-04T19:16:27;20.93;;;15.47;;
10661;SDS011;5379;51.034;7.006;2022-12-04T19:18:54;17.63;;;13.03;;